createdAt,value
2018-09-29T00:01:06.944Z,8.60
2018-09-29T00:03:39.219Z,13.10
2018-09-29T00:06:11.237Z,13.27
2018-09-29T00:08:42.673Z,11.00
2018-09-29T00:11:14.547Z,15.43
2018-09-29T00:13:45.711Z,9.30
2018-09-29T00:16:17.176Z,14.07
2018-09-29T00:18:48.274Z,12.60
2018-09-29T00:21:19.702Z,15.20
2018-09-29T00:23:51.640Z,9.77
2018-09-29T00:26:23.820Z,11.80
2018-09-29T00:28:55.018Z,16.03
2018-09-29T00:31:26.043Z,15.33
2018-09-29T00:33:57.455Z,17.27
2018-09-29T00:36:29.743Z,10.43
2018-09-29T00:39:01.252Z,11.80
2018-09-29T00:41:33.122Z,18.07
2018-09-29T00:44:05.402Z,9.53
2018-09-29T00:46:36.821Z,13.70
2018-09-29T00:49:08.497Z,11.27
2018-09-29T00:51:40.382Z,7.87
2018-09-29T00:54:11.747Z,16.80
2018-09-29T00:56:43.000Z,19.97
2018-09-29T00:59:14.364Z,15.83
2018-09-29T01:01:46.092Z,13.23
2018-09-29T01:04:17.686Z,12.20
2018-09-29T01:06:48.939Z,14.70
2018-09-29T01:09:19.995Z,10.67
2018-09-29T01:11:51.323Z,16.30
2018-09-29T01:14:22.623Z,12.23
2018-09-29T01:16:53.873Z,10.10
2018-09-29T01:19:25.322Z,11.27
2018-09-29T01:21:57.017Z,10.17
2018-09-29T01:24:28.558Z,12.27
2018-09-29T01:27:00.084Z,14.57
2018-09-29T01:29:31.097Z,10.47
2018-09-29T01:32:05.609Z,10.47
2018-09-29T01:34:36.941Z,9.43
2018-09-29T01:37:09.531Z,22.27
2018-09-29T01:39:40.447Z,12.77
2018-09-29T01:42:12.470Z,10.60
2018-09-29T01:44:43.532Z,9.23
2018-09-29T01:47:15.825Z,9.47
2018-09-29T01:49:47.184Z,11.03
2018-09-29T01:52:18.389Z,12.13
2018-09-29T01:54:50.383Z,14.77
2018-09-29T01:57:21.581Z,8.37
2018-09-29T01:59:59.396Z,10.53
2018-09-29T02:02:30.829Z,14.77
2018-09-29T02:05:02.302Z,7.97
2018-09-29T02:07:34.075Z,11.37
2018-09-29T02:10:06.600Z,12.80
2018-09-29T02:12:38.128Z,7.00
2018-09-29T02:15:09.534Z,8.73
2018-09-29T02:17:40.979Z,11.63
2018-09-29T02:20:13.232Z,12.27
2018-09-29T02:22:45.316Z,6.73
2018-09-29T02:25:17.200Z,11.13
2018-09-29T02:27:48.344Z,9.03
2018-09-29T02:30:19.865Z,7.20
2018-09-29T02:32:50.965Z,10.03
2018-09-29T02:35:21.619Z,8.87
2018-09-29T02:37:52.950Z,12.60
2018-09-29T02:40:24.532Z,11.87
2018-09-29T02:42:55.768Z,8.03
2018-09-29T02:45:27.437Z,8.00
2018-09-29T02:47:58.252Z,10.60
2018-09-29T02:50:29.277Z,10.47
2018-09-29T02:53:00.568Z,9.67
2018-09-29T02:55:32.045Z,9.17
2018-09-29T02:58:03.255Z,9.60
2018-09-29T03:00:34.623Z,9.30
2018-09-29T03:03:05.852Z,11.77
2018-09-29T03:05:37.108Z,10.07
2018-09-29T03:08:14.743Z,8.20
2018-09-29T03:10:45.839Z,11.50
2018-09-29T03:13:17.583Z,12.97
2018-09-29T03:15:49.455Z,9.17
2018-09-29T03:18:21.172Z,10.07
2018-09-29T03:20:52.432Z,13.53
2018-09-29T03:23:23.536Z,11.73
2018-09-29T03:25:56.701Z,9.63
2018-09-29T03:28:27.537Z,13.03
2018-09-29T03:30:58.837Z,8.17
2018-09-29T03:33:30.253Z,10.00
2018-09-29T03:36:01.778Z,9.13
2018-09-29T03:38:32.898Z,11.87
2018-09-29T03:41:05.149Z,15.63
2018-09-29T03:43:36.317Z,11.73
2018-09-29T03:46:07.401Z,10.17
2018-09-29T03:48:38.180Z,10.03
2018-09-29T03:51:09.353Z,13.57
2018-09-29T03:53:40.774Z,5.80
2018-09-29T03:56:11.794Z,7.17
2018-09-29T03:58:43.225Z,11.60
2018-09-29T04:01:16.028Z,10.67
2018-09-29T04:03:47.152Z,10.37
2018-09-29T04:06:18.636Z,12.13
2018-09-29T04:08:49.964Z,9.33
2018-09-29T04:11:23.252Z,8.93
2018-09-29T04:13:54.579Z,16.63
2018-09-29T04:16:26.656Z,12.03
2018-09-29T04:18:57.923Z,14.80
2018-09-29T04:21:33.418Z,8.33
2018-09-29T04:24:05.113Z,12.27
2018-09-29T04:26:36.063Z,14.63
2018-09-29T04:29:07.953Z,9.83
2018-09-29T04:31:39.665Z,6.47
2018-09-29T04:34:11.791Z,10.17
2018-09-29T04:36:43.233Z,12.33
2018-09-29T04:39:15.544Z,13.03
2018-09-29T04:41:47.526Z,9.20
2018-09-29T04:44:18.700Z,10.27
2018-09-29T04:46:49.850Z,7.90
2018-09-29T04:49:21.159Z,11.40
2018-09-29T04:51:52.387Z,9.93
2018-09-29T04:54:24.775Z,10.10
2018-09-29T04:56:55.747Z,6.67
2018-09-29T04:59:27.680Z,10.80
2018-09-29T05:01:59.443Z,11.93
2018-09-29T05:04:30.274Z,9.33
2018-09-29T05:07:01.734Z,7.00
2018-09-29T05:09:32.791Z,10.07
2018-09-29T05:12:04.431Z,22.97
2018-09-29T05:14:35.323Z,12.27
2018-09-29T05:17:06.406Z,7.17
2018-09-29T05:19:37.417Z,8.17
2018-09-29T05:22:08.660Z,11.37
2018-09-29T05:24:40.814Z,12.13
2018-09-29T05:27:12.580Z,9.73
2018-09-29T05:29:44.662Z,12.50
2018-09-29T05:32:17.257Z,10.60
2018-09-29T05:34:49.413Z,7.33
2018-09-29T05:37:21.111Z,9.20
2018-09-29T05:39:55.874Z,10.70
2018-09-29T05:42:28.614Z,10.73
2018-09-29T05:45:00.267Z,13.97
2018-09-29T05:47:33.453Z,6.57
2018-09-29T05:50:04.892Z,9.60
2018-09-29T05:52:44.063Z,13.40
2018-09-29T05:55:17.520Z,10.23
2018-09-29T06:00:46.329Z,11.73
2018-09-29T06:03:21.120Z,12.03
2018-09-29T06:06:02.492Z,12.10
2018-09-29T06:08:36.181Z,12.17
2018-09-29T06:11:08.064Z,12.57
2018-09-29T06:13:40.394Z,11.30
2018-09-29T06:16:12.460Z,11.27
2018-09-29T06:18:44.326Z,10.87
2018-09-29T06:21:16.345Z,9.80
2018-09-29T06:23:47.670Z,13.63
2018-09-29T06:26:19.981Z,11.67
2018-09-29T06:28:56.418Z,10.37
2018-09-29T06:31:28.238Z,15.17
2018-09-29T06:33:59.600Z,13.10
2018-09-29T06:36:31.817Z,11.43
2018-09-29T06:39:03.907Z,10.67
2018-09-29T06:41:35.833Z,11.80
2018-09-29T06:44:07.634Z,16.57
2018-09-29T06:46:39.235Z,8.00
2018-09-29T06:49:12.293Z,13.20
2018-09-29T06:51:45.182Z,17.47
2018-09-29T06:54:18.099Z,15.53
2018-09-29T06:56:49.662Z,16.53
2018-09-29T06:59:24.475Z,15.87
2018-09-29T07:02:01.844Z,14.17
2018-09-29T07:04:32.421Z,13.67
2018-09-29T07:07:03.888Z,15.40
2018-09-29T07:09:35.158Z,12.13
2018-09-29T07:12:06.956Z,15.47
2018-09-29T07:14:38.440Z,21.10
2018-09-29T07:17:08.967Z,15.03
2018-09-29T07:19:39.138Z,16.60
2018-09-29T07:22:10.529Z,10.00
2018-09-29T07:24:41.046Z,15.37
2018-09-29T07:27:11.161Z,11.47
2018-09-29T07:29:44.591Z,14.67
2018-09-29T07:32:15.892Z,14.53
2018-09-29T07:34:46.114Z,14.77
2018-09-29T07:37:18.701Z,10.70
2018-09-29T07:39:48.816Z,14.77
2018-09-29T07:42:19.090Z,13.13
2018-09-29T07:44:49.448Z,10.50
2018-09-29T07:47:19.412Z,12.70
2018-09-29T07:49:49.460Z,13.80
2018-09-29T07:52:19.439Z,16.23
2018-09-29T07:54:49.422Z,14.07
2018-09-29T07:57:23.960Z,13.20
2018-09-29T07:59:53.901Z,15.37
2018-09-29T08:02:25.329Z,19.23
2018-09-29T08:04:55.640Z,10.57
2018-09-29T08:07:25.675Z,10.30
2018-09-29T08:09:55.503Z,10.40
2018-09-29T08:12:26.175Z,15.37
2018-09-29T08:15:01.381Z,12.60
2018-09-29T08:17:31.311Z,11.67
2018-09-29T08:20:01.595Z,7.13
2018-09-29T08:22:31.792Z,11.47
2018-09-29T08:25:02.031Z,12.70
2018-09-29T08:27:32.196Z,11.53
2018-09-29T08:30:02.179Z,15.53
2018-09-29T08:32:36.391Z,17.60
2018-09-29T08:35:06.430Z,13.40
2018-09-29T08:37:36.714Z,12.27
2018-09-29T08:40:07.282Z,11.23
2018-09-29T08:42:42.111Z,12.13
2018-09-29T08:45:14.729Z,10.80
2018-09-29T08:47:46.449Z,10.87
2018-09-29T08:50:16.643Z,9.20
2018-09-29T08:52:46.793Z,10.53
2018-09-29T08:55:16.879Z,11.10
2018-09-29T08:57:47.212Z,8.47
2018-09-29T09:00:16.766Z,10.37
2018-09-29T09:02:46.686Z,7.03
2018-09-29T09:05:16.320Z,9.93
2018-09-29T09:07:46.345Z,7.27
2018-09-29T09:10:16.677Z,11.80
2018-09-29T09:12:47.042Z,12.13
2018-09-29T09:15:17.243Z,9.77
2018-09-29T09:17:47.542Z,7.03
2018-09-29T09:20:17.774Z,12.37
2018-09-29T09:22:47.683Z,5.87
2018-09-29T09:25:18.055Z,9.23
2018-09-29T09:27:48.318Z,8.30
2018-09-29T09:30:19.147Z,9.43
2018-09-29T09:32:49.346Z,13.23
2018-09-29T09:35:20.718Z,7.13
2018-09-29T09:37:50.672Z,8.17
2018-09-29T09:40:21.184Z,9.97
2018-09-29T09:42:52.068Z,9.47
2018-09-29T09:45:22.285Z,10.57
2018-09-29T09:47:52.182Z,6.90
2018-09-29T09:50:22.644Z,8.20
2018-09-29T09:52:53.563Z,8.10
2018-09-29T09:55:23.631Z,8.63
2018-09-29T09:57:54.102Z,5.30
2018-09-29T10:00:28.229Z,7.90
2018-09-29T10:03:05.881Z,5.63
2018-09-29T10:05:35.822Z,7.10
2018-09-29T10:08:05.536Z,7.90
2018-09-29T10:10:35.785Z,5.50
2018-09-29T10:13:06.033Z,6.80
2018-09-29T10:15:35.983Z,7.77
2018-09-29T10:18:06.344Z,7.27
2018-09-29T10:20:36.365Z,6.97
2018-09-29T10:23:06.814Z,7.47
2018-09-29T10:25:36.570Z,6.43
2018-09-29T10:28:06.524Z,6.23
2018-09-29T10:30:36.608Z,6.27
2018-09-29T10:33:06.507Z,6.83
2018-09-29T10:35:36.295Z,5.30
2018-09-29T10:38:06.188Z,7.27
2018-09-29T10:40:36.722Z,6.43
2018-09-29T10:43:06.962Z,7.23
2018-09-29T10:45:37.291Z,6.53
2018-09-29T10:48:07.476Z,9.30
2018-09-29T10:50:37.499Z,7.13
2018-09-29T10:53:07.534Z,6.70
2018-09-29T10:55:38.104Z,4.47
2018-09-29T10:58:07.882Z,4.03
2018-09-29T11:00:37.991Z,6.07
2018-09-29T11:03:09.220Z,5.57
2018-09-29T11:05:39.587Z,4.60
2018-09-29T11:08:09.807Z,8.07
2018-09-29T11:10:39.901Z,5.60
2018-09-29T11:13:10.396Z,5.17
2018-09-29T11:15:40.859Z,9.93
2018-09-29T11:18:10.956Z,4.93
2018-09-29T11:20:41.076Z,6.57
2018-09-29T11:23:11.135Z,9.27
2018-09-29T11:25:41.241Z,8.53
2018-09-29T11:28:12.699Z,5.13
2018-09-29T11:30:42.983Z,7.47
2018-09-29T11:33:14.061Z,6.13
2018-09-29T11:35:43.879Z,7.40
2018-09-29T11:38:13.859Z,6.37
2018-09-29T11:40:44.400Z,5.97
2018-09-29T11:43:14.503Z,10.23
2018-09-29T11:45:44.568Z,7.13
2018-09-29T11:48:14.192Z,7.23
2018-09-29T11:50:44.899Z,6.07
2018-09-29T11:53:15.211Z,5.17
2018-09-29T11:55:45.994Z,6.80
2018-09-29T11:58:15.910Z,7.57
2018-09-29T12:00:45.953Z,5.87
2018-09-29T12:03:16.703Z,3.57
2018-09-29T12:05:46.513Z,6.23
2018-09-29T12:08:16.998Z,6.37
2018-09-29T12:10:48.716Z,7.63
2018-09-29T12:13:18.266Z,5.20
2018-09-29T12:15:48.261Z,5.67
2018-09-29T12:18:18.054Z,4.67
2018-09-29T12:20:48.194Z,5.93
2018-09-29T12:23:18.298Z,4.47
2018-09-29T12:25:48.346Z,3.70
2018-09-29T12:28:18.332Z,4.83
2018-09-29T12:30:48.846Z,7.70
2018-09-29T12:33:19.140Z,5.23
2018-09-29T12:35:49.408Z,7.00
2018-09-29T12:38:19.836Z,6.13
2018-09-29T12:40:50.030Z,5.67
2018-09-29T12:43:20.348Z,8.00
2018-09-29T12:45:50.525Z,4.73
2018-09-29T12:48:20.578Z,8.00
2018-09-29T12:50:50.968Z,6.60
2018-09-29T12:53:21.452Z,5.97
2018-09-29T12:55:51.559Z,3.90
2018-09-29T12:58:21.745Z,4.07
2018-09-29T13:00:52.035Z,5.07
2018-09-29T13:03:22.108Z,3.87
2018-09-29T13:05:52.180Z,3.73
2018-09-29T13:08:22.543Z,5.17
2018-09-29T13:10:53.507Z,3.53
2018-09-29T13:13:23.461Z,4.73
2018-09-29T13:15:53.597Z,5.17
2018-09-29T13:18:23.739Z,2.67
2018-09-29T13:20:53.570Z,3.57
2018-09-29T13:23:23.974Z,5.03
2018-09-29T13:25:54.262Z,4.00
2018-09-29T13:28:24.315Z,7.60
2018-09-29T13:30:57.562Z,6.83
2018-09-29T13:33:27.846Z,5.67
2018-09-29T13:37:02.224Z,4.47
2018-09-29T13:39:34.593Z,4.63
2018-09-29T13:42:11.454Z,3.57
2018-09-29T13:44:42.583Z,4.03
2018-09-29T13:47:14.071Z,6.20
2018-09-29T13:49:44.718Z,4.83
2018-09-29T13:52:15.387Z,5.55
2018-09-29T13:54:44.826Z,4.60
2018-09-29T13:57:15.534Z,7.40
2018-09-29T14:00:00.533Z,6.78
2018-09-29T14:02:30.959Z,4.67
2018-09-29T14:05:01.979Z,3.62
2018-09-29T14:07:32.581Z,5.13
2018-09-29T14:10:04.127Z,5.63
2018-09-29T14:12:34.868Z,6.83
2018-09-29T14:15:06.148Z,6.00
2018-09-29T14:17:36.396Z,5.83
2018-09-29T14:20:07.355Z,8.17
2018-09-29T14:22:38.536Z,5.83
2018-09-29T14:25:12.713Z,4.23
2018-09-29T14:28:17.450Z,3.92
2018-09-29T14:30:49.154Z,4.30
2018-09-29T14:33:28.506Z,5.60
2018-09-29T14:36:01.786Z,6.42
2018-09-29T14:38:34.073Z,4.83
2018-09-29T14:41:11.505Z,4.10
2018-09-29T14:43:43.206Z,3.20
2018-09-29T14:46:15.332Z,5.75
2018-09-29T14:48:51.813Z,5.12
2018-09-29T14:51:23.914Z,3.47
2018-09-29T14:53:57.829Z,3.58
2018-09-29T14:56:31.489Z,3.75
2018-09-29T14:59:05.189Z,3.80
2018-09-29T15:01:38.230Z,3.93
2018-09-29T15:04:19.724Z,5.55
2018-09-29T15:06:55.751Z,6.62
2018-09-29T15:09:35.242Z,4.95
2018-09-29T15:12:08.034Z,4.33
2018-09-29T15:14:42.338Z,5.05
2018-09-29T15:17:18.044Z,4.22
2018-09-29T15:19:49.307Z,6.30
2018-09-29T15:23:31.170Z,5.10
2018-09-29T15:26:06.093Z,4.85
2018-09-29T15:28:40.552Z,4.25
2018-09-29T15:31:14.643Z,6.62
2018-09-29T15:33:48.432Z,4.62
2018-09-29T15:36:21.293Z,6.60
2018-09-29T15:38:59.486Z,5.42
2018-09-29T15:41:37.221Z,4.60
2018-09-29T15:44:12.828Z,3.22
2018-09-29T15:46:46.498Z,3.92
2018-09-29T15:49:21.527Z,6.50
2018-09-29T15:51:56.872Z,4.80
2018-09-29T15:54:29.917Z,5.12
2018-09-29T15:57:04.646Z,6.12
2018-09-29T15:59:37.560Z,4.60
2018-09-29T16:02:09.924Z,6.17
2018-09-29T16:04:43.809Z,4.67
2018-09-29T16:07:17.729Z,4.23
2018-09-29T16:09:50.554Z,5.33
2018-09-29T16:12:23.420Z,4.63
2018-09-29T16:14:58.453Z,4.10
2018-09-29T16:17:30.003Z,10.17
2018-09-29T16:20:02.258Z,6.50
2018-09-29T16:22:34.210Z,5.00
2018-09-29T16:25:06.886Z,9.50
2018-09-29T16:27:39.969Z,4.27
2018-09-29T16:30:12.938Z,7.97
2018-09-29T16:32:46.074Z,6.57
2018-09-29T16:35:17.316Z,7.97
2018-09-29T16:37:48.315Z,7.33
2018-09-29T16:40:20.437Z,6.33
2018-09-29T16:42:52.065Z,9.90
2018-09-29T16:45:30.079Z,10.80
2018-09-29T16:48:02.282Z,10.70
2018-09-29T16:50:34.006Z,10.53
2018-09-29T16:53:06.684Z,9.17
2018-09-29T16:55:39.502Z,7.37
2018-09-29T16:58:12.230Z,8.20
2018-09-29T17:00:45.089Z,9.13
2018-09-29T17:03:18.227Z,16.03
2018-09-29T17:05:54.293Z,7.70
2018-09-29T17:08:27.176Z,9.73
2018-09-29T17:11:03.627Z,8.67
2018-09-29T17:13:36.075Z,13.10
2018-09-29T17:16:08.503Z,9.47
2018-09-29T17:18:41.612Z,7.17
2018-09-29T17:21:12.710Z,11.80
2018-09-29T17:23:44.799Z,8.97
2018-09-29T17:26:16.212Z,7.43
2018-09-29T17:28:47.926Z,8.70
2018-09-29T17:31:28.794Z,9.63
2018-09-29T17:34:01.380Z,9.17
2018-09-29T17:36:32.426Z,6.27
2018-09-29T17:39:16.946Z,6.17
2018-09-29T17:41:50.543Z,8.63
2018-09-29T17:44:25.180Z,9.07
2018-09-29T17:47:04.554Z,8.10
2018-09-29T17:49:35.884Z,8.83
2018-09-29T17:52:11.267Z,9.67
2018-09-29T17:54:44.258Z,11.07
2018-09-29T17:57:24.198Z,9.83
2018-09-29T17:59:58.164Z,13.90
2018-09-29T18:02:31.014Z,9.70
2018-09-29T18:05:05.147Z,10.53
2018-09-29T18:07:37.931Z,7.97
2018-09-29T18:10:09.852Z,7.27
2018-09-29T18:12:40.955Z,9.23
2018-09-29T18:15:25.436Z,7.97
2018-09-29T18:18:34.524Z,7.63
2018-09-29T18:21:13.140Z,7.03
2018-09-29T18:23:47.549Z,9.87
2018-09-29T18:26:24.296Z,7.53
2018-09-29T18:28:58.958Z,9.20
2018-09-29T18:31:35.698Z,11.23
2018-09-29T18:34:13.963Z,6.97
2018-09-29T18:36:48.222Z,9.40
2018-09-29T18:39:23.978Z,7.13
2018-09-29T18:41:57.962Z,6.70
2018-09-29T18:44:31.915Z,7.67
2018-09-29T18:47:08.071Z,8.27
2018-09-29T18:49:41.923Z,6.97
2018-09-29T18:52:17.605Z,9.23
2018-09-29T18:54:55.617Z,6.23
2018-09-29T18:57:31.012Z,7.87
2018-09-29T19:00:12.214Z,5.23
2018-09-29T19:02:44.484Z,7.83
2018-09-29T19:05:17.239Z,7.07
2018-09-29T19:07:49.693Z,5.07
2018-09-29T19:10:22.439Z,5.70
2018-09-29T19:12:54.442Z,8.80
2018-09-29T19:15:32.243Z,4.87
2018-09-29T19:18:05.625Z,6.03
2018-09-29T19:20:38.714Z,7.43
2018-09-29T19:23:10.322Z,8.63
2018-09-29T19:25:43.741Z,12.23
2018-09-29T19:28:15.431Z,14.67
2018-09-29T19:30:49.200Z,12.70
2018-09-29T19:33:27.407Z,12.57
2018-09-29T19:36:00.377Z,9.30
2018-09-29T19:41:43.559Z,11.63
2018-09-29T19:44:24.366Z,4.70
2018-09-29T19:47:09.039Z,9.07
2018-09-29T19:49:46.997Z,8.73
2018-09-29T19:52:24.993Z,7.03
2018-09-29T19:55:04.343Z,6.57
2018-09-29T19:57:39.617Z,7.50
2018-09-29T20:00:12.482Z,7.70
2018-09-29T20:02:52.352Z,7.10
2018-09-29T20:05:25.897Z,7.43
2018-09-29T20:07:59.248Z,6.00
2018-09-29T20:10:33.142Z,7.33
2018-09-29T20:13:07.775Z,5.80
2018-09-29T20:15:44.333Z,8.17
2018-09-29T20:18:17.211Z,7.87
2018-09-29T20:20:48.803Z,8.33
2018-09-29T20:23:25.490Z,13.60
2018-09-29T20:26:02.125Z,9.27
2018-09-29T20:28:41.848Z,9.70
2018-09-29T20:31:18.705Z,13.07
2018-09-29T20:33:52.008Z,11.30
2018-09-29T20:36:30.194Z,6.67
2018-09-29T20:39:08.477Z,8.97
2018-09-29T20:41:47.733Z,10.00
2018-09-29T20:44:21.479Z,9.57
2018-09-29T20:47:00.138Z,8.63
2018-09-29T20:49:34.759Z,13.23
2018-09-29T20:52:08.326Z,8.57
2018-09-29T20:54:39.279Z,12.40
2018-09-29T20:57:14.680Z,8.37
2018-09-29T20:59:45.798Z,6.40
2018-09-29T21:02:17.328Z,8.37
2018-09-29T21:04:50.404Z,8.17
2018-09-29T21:07:21.804Z,11.63
2018-09-29T21:11:00.517Z,8.60
2018-09-29T21:13:33.349Z,10.33
2018-09-29T21:16:04.374Z,8.47
2018-09-29T21:18:35.530Z,7.80
2018-09-29T21:21:06.641Z,8.17
2018-09-29T21:23:37.640Z,10.47
2018-09-29T21:26:09.298Z,7.73
2018-09-29T21:28:40.408Z,7.47
2018-09-29T21:31:12.728Z,7.53
2018-09-29T21:33:44.374Z,8.97
2018-09-29T21:36:17.115Z,8.80
2018-09-29T21:38:48.545Z,7.53
2018-09-29T21:41:19.721Z,9.73
2018-09-29T21:43:51.494Z,9.83
2018-09-29T21:46:22.508Z,9.03
2018-09-29T21:48:53.954Z,9.93
2018-09-29T21:51:26.234Z,9.33
2018-09-29T21:53:56.496Z,12.77
2018-09-29T21:56:27.293Z,8.47
2018-09-29T21:58:58.444Z,8.93
2018-09-29T22:01:31.867Z,10.10
2018-09-29T22:04:03.607Z,10.47
2018-09-29T22:06:33.746Z,7.47
2018-09-29T22:09:04.507Z,11.57
2018-09-29T22:11:35.213Z,11.13
2018-09-29T22:14:10.007Z,7.63
2018-09-29T22:16:40.497Z,9.53
2018-09-29T22:19:11.080Z,9.33
2018-09-29T22:21:42.165Z,6.73
2018-09-29T22:24:12.183Z,7.20
2018-09-29T22:26:44.449Z,8.10
2018-09-29T22:29:15.411Z,6.57
2018-09-29T22:31:46.341Z,6.80
2018-09-29T22:34:17.283Z,10.40
2018-09-29T22:36:48.063Z,8.80
2018-09-29T22:39:19.208Z,8.87
2018-09-29T22:41:50.258Z,10.10
2018-09-29T22:44:21.317Z,11.90
2018-09-29T22:46:53.175Z,9.53
2018-09-29T22:49:24.448Z,10.50
2018-09-29T22:51:56.062Z,9.33
2018-09-29T22:54:27.175Z,9.87
2018-09-29T22:56:59.232Z,6.30
2018-09-29T22:59:29.921Z,8.20
2018-09-29T23:02:00.064Z,8.57
2018-09-29T23:04:30.436Z,7.77
2018-09-29T23:07:00.718Z,10.03
2018-09-29T23:09:30.732Z,10.90
2018-09-29T23:12:01.066Z,7.77
2018-09-29T23:14:30.993Z,9.97
2018-09-29T23:17:01.252Z,11.50
2018-09-29T23:19:31.633Z,8.63
2018-09-29T23:22:05.067Z,8.40
2018-09-29T23:24:37.357Z,9.13
2018-09-29T23:27:08.596Z,9.83
2018-09-29T23:29:47.262Z,7.53
2018-09-29T23:32:20.041Z,8.37
2018-09-29T23:34:52.546Z,8.47
2018-09-29T23:37:24.479Z,8.00
2018-09-29T23:39:58.872Z,8.33
2018-09-29T23:42:29.280Z,9.20
2018-09-29T23:45:00.170Z,9.23
2018-09-29T23:47:30.196Z,13.53
2018-09-29T23:50:01.780Z,9.43
2018-09-29T23:52:33.722Z,6.77
2018-09-29T23:55:04.055Z,9.60
2018-09-29T23:57:34.368Z,7.43
